Time;durP1;ratioP1;P1;durP2;ratioP2;P2;SDS_P1;SDS_P2;PMS_P1;PMS_P2;Temp;Humidity;BMP_temperature;BMP_pressure;BME280_temperature;BME280_humidity;BME280_pressure;Samples;Min_cycle;Max_cycle;Signal;HPM_P1;HPM_P2
2023/12/01 00:00:03;;;;;;;39.83;9.32;;;6.20;71.10;;;1.05;100.00;93715.81;4936715;29;20031;-57
2023/12/01 00:02:28;;;;;;;18.45;7.60;;;6.20;71.00;;;1.03;100.00;93720.50;4945487;28;20512;-58
2023/12/01 00:04:54;;;;;;;15.60;6.90;;;6.20;71.00;;;0.98;100.00;93720.47;4936345;28;20023;-57
2023/12/01 00:07:20;;;;;;;13.13;6.88;;;6.20;70.90;;;0.92;100.00;93706.53;4940790;29;20118;-57
2023/12/01 00:09:46;;;;;;;19.25;7.20;;;6.20;70.90;;;0.86;100.00;93706.75;4937893;28;20027;-59
2023/12/01 00:12:12;;;;;;;14.88;6.82;;;6.10;70.80;;;0.83;100.00;93707.25;4939658;28;20039;-60
2023/12/01 00:14:41;;;;;;;24.20;7.15;;;6.10;70.80;;;0.69;100.00;93707.66;4948983;28;20022;-60
2023/12/01 00:17:07;;;;;;;16.40;7.07;;;6.00;70.80;;;0.77;100.00;93709.03;4936513;28;20027;-60
2023/12/01 00:19:33;;;;;;;21.15;8.10;;;6.00;70.90;;;0.72;100.00;93693.25;4937702;29;20037;-58
2023/12/01 00:21:59;;;;;;;14.98;7.25;;;6.00;70.90;;;0.63;100.00;93700.78;4936146;28;20030;-59
2023/12/01 00:24:25;;;;;;;17.98;7.78;;;5.90;70.80;;;0.61;100.00;93695.00;4943492;29;20019;-59
2023/12/01 00:26:51;;;;;;;19.02;7.05;;;5.90;70.90;;;0.60;100.00;93693.41;4939224;28;20026;-57
2023/12/01 00:29:16;;;;;;;17.05;7.03;;;5.90;70.90;;;0.63;100.00;93692.94;4938379;28;20023;-60
2023/12/01 00:31:42;;;;;;;22.30;8.32;;;5.90;71.00;;;0.61;100.00;93702.84;4942154;28;20041;-58
2023/12/01 00:34:08;;;;;;;24.38;8.18;;;5.80;71.00;;;0.56;100.00;93691.53;4937047;28;20078;-60
2023/12/01 00:36:34;;;;;;;20.58;7.53;;;5.80;71.00;;;0.60;100.00;93690.00;4949445;28;20026;-59
2023/12/01 00:39:00;;;;;;;20.58;8.45;;;5.80;71.10;;;0.63;100.00;93695.53;4939959;28;20375;-60
2023/12/01 00:41:26;;;;;;;25.20;8.15;;;5.80;71.10;;;0.61;100.00;93687.13;4943089;28;20031;-55
2023/12/01 00:43:52;;;;;;;24.85;7.97;;;5.80;71.20;;;0.60;100.00;93690.81;4942683;28;20039;-60
2023/12/01 00:46:18;;;;;;;30.27;9.80;;;5.80;71.20;;;0.63;100.00;93702.63;4943027;28;20069;-60
2023/12/01 00:48:44;;;;;;;31.38;9.40;;;5.80;71.20;;;0.67;100.00;93706.31;4944736;28;20449;-59
2023/12/01 00:51:19;;;;;;;24.27;8.75;;;5.80;71.30;;;0.69;100.00;93699.78;4940097;28;20016;-60
2023/12/01 00:53:47;;;;;;;30.42;9.75;;;5.80;71.30;;;0.70;100.00;93692.72;4943262;28;20066;-60
2023/12/01 00:56:14;;;;;;;26.60;8.55;;;5.90;71.30;;;0.69;100.00;93704.25;4945661;28;20412;-60
2023/12/01 00:58:40;;;;;;;22.15;7.55;;;5.90;71.30;;;0.67;100.00;93698.47;4936648;28;20450;-60
2023/12/01 01:01:07;;;;;;;19.95;7.32;;;5.80;71.20;;;0.67;100.00;93707.09;4938943;28;20042;-58
2023/12/01 01:03:34;;;;;;;20.30;7.20;;;5.90;71.30;;;0.66;100.00;93700.28;4941627;28;20092;-59
2023/12/01 01:06:01;;;;;;;19.58;7.18;;;5.80;71.30;;;0.68;100.00;93700.03;4942419;28;20109;-59
2023/12/01 01:08:31;;;;;;;25.70;7.55;;;5.90;71.30;;;0.69;100.00;93697.19;4941498;28;20515;-60
2023/12/01 01:10:57;;;;;;;20.25;6.78;;;5.90;71.30;;;0.68;100.00;93698.19;4943850;28;20486;-60
2023/12/01 01:13:28;;;;;;;40.33;8.43;;;5.80;71.20;;;0.68;100.00;93705.25;4938693;28;20118;-60
2023/12/01 01:15:54;;;;;;;28.67;8.68;;;5.80;71.20;;;0.66;100.00;93700.28;4944250;28;20026;-60
2023/12/01 01:18:21;;;;;;;25.73;8.27;;;5.80;71.30;;;0.67;100.00;93704.47;4937423;28;20042;-60
2023/12/01 01:20:48;;;;;;;26.23;9.07;;;5.80;71.30;;;0.70;100.00;93708.44;4940241;28;20045;-60
2023/12/01 01:23:14;;;;;;;19.27;8.30;;;5.80;71.30;;;0.69;100.00;93714.72;4941474;28;20031;-60
2023/12/01 01:25:40;;;;;;;19.75;7.65;;;5.80;71.30;;;0.69;100.00;93714.72;4946421;28;20040;-61
2023/12/01 01:28:05;;;;;;;28.70;9.02;;;5.90;71.40;;;0.73;100.00;93717.66;4942497;28;20114;-61
2023/12/01 01:30:31;;;;;;;28.23;8.75;;;5.90;71.40;;;0.74;100.00;93714.75;4939440;28;20114;-61
2023/12/01 01:32:57;;;;;;;22.92;7.65;;;5.90;71.50;;;0.76;100.00;93725.78;4941540;28;20510;-61
2023/12/01 01:35:23;;;;;;;21.95;8.63;;;5.90;71.40;;;0.78;100.00;93730.78;4944763;28;20603;-61
2023/12/01 01:37:49;;;;;;;24.67;8.52;;;5.90;71.40;;;0.78;100.00;93747.28;4937641;28;20035;-61
2023/12/01 01:40:15;;;;;;;19.88;6.72;;;6.00;71.40;;;0.78;100.00;93747.28;4938479;28;20027;-60
2023/12/01 01:42:41;;;;;;;22.30;6.65;;;6.00;71.40;;;0.78;100.00;93749.91;4941951;28;20078;-61
2023/12/01 01:45:07;;;;;;;18.02;6.72;;;6.00;71.40;;;0.79;100.00;93748.09;4944786;28;20117;-61
2023/12/01 01:47:34;;;;;;;19.90;6.20;;;6.00;71.30;;;0.80;100.00;93752.28;4940359;28;20034;-61
2023/12/01 01:50:03;;;;;;;35.92;7.75;;;6.00;71.30;;;0.78;100.00;93751.75;4942977;28;20606;-61
2023/12/01 01:52:30;;;;;;;69.53;9.88;;;6.00;71.30;;;0.80;100.00;93752.28;4937861;28;20034;-61
2023/12/01 01:54:57;;;;;;;23.65;8.50;;;6.00;71.30;;;0.80;100.00;93750.47;4942171;28;20050;-59
2023/12/01 01:57:23;;;;;;;46.17;9.68;;;6.00;71.30;;;0.80;100.00;93753.09;4943014;28;20038;-57
2023/12/01 01:59:49;;;;;;;86.05;11.07;;;6.00;71.40;;;0.80;100.00;93765.41;4937298;28;21196;-59
2023/12/01 02:02:15;;;;;;;27.83;7.97;;;6.00;71.40;;;0.80;100.00;93766.19;4940198;28;20110;-57
2023/12/01 02:04:41;;;;;;;48.60;10.15;;;6.00;71.40;;;0.79;100.00;93751.50;4938621;28;20026;-54
2023/12/01 02:07:10;;;;;;;36.72;10.18;;;6.00;71.40;;;0.81;100.00;93756.50;4942082;28;20030;-54
2023/12/01 02:09:36;;;;;;;24.58;8.43;;;5.90;71.30;;;0.80;100.00;93741.81;4944956;28;20033;-53
2023/12/01 02:12:02;;;;;;;29.65;8.55;;;5.90;71.30;;;0.79;100.00;93737.63;4938397;28;20112;-54
2023/12/01 02:14:28;;;;;;;23.30;8.65;;;5.90;71.40;;;0.79;100.00;93735.78;4942387;28;20038;-57
2023/12/01 02:16:55;;;;;;;29.33;8.88;;;5.90;71.40;;;0.79;100.00;93746.28;4956777;28;20022;-53
2023/12/01 02:19:21;;;;;;;27.38;8.55;;;5.90;71.40;;;0.80;100.00;93742.59;4954627;28;20121;-52
2023/12/01 02:21:48;;;;;;;109.63;11.32;;;5.90;71.50;;;0.79;100.00;93750.72;4937983;28;20101;-53
2023/12/01 02:24:14;;;;;;;39.53;8.85;;;6.00;71.50;;;0.79;100.00;93733.16;4941839;28;20027;-51
2023/12/01 02:26:41;;;;;;;90.35;10.73;;;6.00;71.50;;;0.81;100.00;93727.66;4939057;28;20127;-51
2023/12/01 02:29:07;;;;;;;35.05;8.85;;;6.00;71.50;;;0.81;100.00;93730.28;4939547;28;20027;-53
2023/12/01 02:31:33;;;;;;;66.07;11.20;;;6.00;71.40;;;0.78;100.00;93731.56;4938182;28;20026;-53
2023/12/01 02:33:59;;;;;;;42.25;10.18;;;6.00;71.40;;;0.79;100.00;93735.00;4938550;28;20042;-51
2023/12/01 02:36:25;;;;;;;39.33;11.38;;;6.00;71.40;;;0.81;100.00;93722.41;4940766;28;20054;-51
2023/12/01 02:38:51;;;;;;;40.83;10.95;;;6.00;71.40;;;0.76;100.00;93723.19;4938228;28;20055;-50
2023/12/01 02:41:18;;;;;;;31.92;9.95;;;6.00;71.40;;;0.77;100.00;93716.09;4938967;28;20023;-54
2023/12/01 02:43:45;;;;;;;34.47;9.80;;;5.90;71.30;;;0.75;100.00;93713.72;4936604;28;20054;-53
2023/12/01 02:46:12;;;;;;;39.10;10.32;;;5.90;71.30;;;0.71;100.00;93712.63;4940385;28;20577;-57
2023/12/01 02:48:40;;;;;;;37.80;8.93;;;5.90;71.30;;;0.73;100.00;93707.16;4943075;28;20100;-51
2023/12/01 02:51:07;;;;;;;40.25;9.52;;;5.90;71.40;;;0.72;100.00;93711.59;4933733;28;20090;-51
2023/12/01 02:53:34;;;;;;;113.82;12.73;;;5.90;71.50;;;0.74;100.00;93712.13;4941181;28;20077;-58
2023/12/01 02:56:01;;;;;;;38.50;10.60;;;5.90;71.50;;;0.75;100.00;93713.72;4941777;28;20054;-51
2023/12/01 02:58:26;;;;;;;32.72;9.40;;;5.90;71.50;;;0.75;100.00;93715.53;4941213;28;20041;-54
2023/12/01 03:00:52;;;;;;;47.67;9.38;;;5.90;71.60;;;0.76;100.00;93712.69;4940477;28;20545;-51
2023/12/01 03:03:18;;;;;;;83.97;12.52;;;5.90;71.60;;;0.76;100.00;93710.06;4941618;28;20039;-53
2023/12/01 03:05:45;;;;;;;40.50;9.77;;;5.90;71.60;;;0.78;100.00;93715.84;4938863;28;20026;-53
2023/12/01 03:08:11;;;;;;;42.25;11.43;;;5.80;71.50;;;0.79;100.00;93725.31;4953542;28;20023;-55
2023/12/01 03:10:38;;;;;;;37.95;10.07;;;5.90;71.70;;;0.83;100.00;93729.00;4944744;28;20092;-56
2023/12/01 03:13:04;;;;;;;38.28;11.18;;;5.90;71.70;;;0.82;100.00;93732.66;4936394;28;20448;-56
2023/12/01 03:15:30;;;;;;;41.88;10.45;;;5.90;71.70;;;0.84;100.00;93735.03;4944753;28;20027;-57
2023/12/01 03:17:56;;;;;;;36.33;10.20;;;5.90;71.70;;;0.86;100.00;93746.06;4933071;29;20085;-55
2023/12/01 03:20:22;;;;;;;57.72;10.52;;;6.00;71.80;;;0.86;100.00;93746.84;4941581;28;20022;-57
2023/12/01 03:22:51;;;;;;;64.75;12.02;;;6.00;71.80;;;0.89;100.00;93743.72;4951904;28;20454;-53
2023/12/01 03:25:17;;;;;;;30.23;8.30;;;6.00;71.80;;;0.92;100.00;93752.94;4938181;29;20054;-55
2023/12/01 03:27:48;;;;;;;40.88;10.13;;;6.00;71.70;;;0.93;100.00;93736.16;4940092;28;20030;-52
2023/12/01 03:30:18;;;;;;;36.90;10.88;;;6.00;71.80;;;0.96;100.00;93735.66;4936313;29;20023;-59
2023/12/01 03:32:51;;;;;;;34.50;9.48;;;6.10;71.80;;;0.96;100.00;93733.03;4934822;28;20034;-56
2023/12/01 03:35:24;;;;;;;180.02;14.77;;;6.10;71.80;;;0.98;100.00;93730.19;4944897;28;20106;-57
2023/12/01 03:37:55;;;;;;;;;;;6.10;71.80;;;0.98;100.00;93728.34;4941104;28;20031;-53
2023/12/01 03:40:22;;;;;;;132.40;11.57;;;6.00;71.60;;;0.96;100.00;93732.25;4935483;29;20014;-53
2023/12/01 03:42:50;;;;;;;127.13;11.85;;;6.10;71.80;;;0.96;100.00;93732.25;4939102;29;20054;-53
2023/12/01 03:45:17;;;;;;;44.95;9.18;;;6.00;71.70;;;0.85;100.00;93726.94;4943168;28;20082;-53
2023/12/01 03:47:51;;;;;;;46.70;9.85;;;6.10;71.70;;;0.89;100.00;93741.13;4941580;28;20612;-55
2023/12/01 03:50:18;;;;;;;52.58;11.77;;;6.00;71.60;;;0.87;100.00;93747.63;4939976;28;20501;-55
2023/12/01 03:52:50;;;;;;;44.40;10.27;;;6.00;71.60;;;0.89;100.00;93742.94;4936928;29;20030;-53
2023/12/01 03:55:17;;;;;;;44.42;9.60;;;6.00;71.70;;;0.90;100.00;93740.06;4937747;29;20030;-51
2023/12/01 03:57:44;;;;;;;42.45;10.32;;;6.00;71.80;;;0.91;100.00;93741.66;4944006;28;20065;-53
2023/12/01 04:00:16;;;;;;;35.63;9.32;;;6.00;71.80;;;0.93;100.00;93751.88;4935471;29;20085;-53
2023/12/01 04:02:46;;;;;;;70.50;11.67;;;6.00;71.80;;;0.91;100.00;93751.38;4942037;29;20050;-57
2023/12/01 04:05:18;;;;;;;30.00;8.38;;;6.10;71.80;;;0.92;100.00;93753.72;4934238;29;20282;-53
2023/12/01 04:07:51;;;;;;;27.60;8.25;;;6.00;71.80;;;0.92;100.00;93756.34;4941237;28;20030;-55
2023/12/01 04:10:17;;;;;;;24.92;7.93;;;6.00;71.80;;;0.96;100.00;93767.13;4944848;28;20467;-55
2023/12/01 04:12:45;;;;;;;23.98;7.75;;;6.00;71.80;;;0.93;100.00;93776.28;4947688;28;20058;-55
2023/12/01 04:15:17;;;;;;;23.70;7.00;;;6.00;71.80;;;0.90;100.00;93771.53;4946047;28;20054;-59
2023/12/01 04:17:46;;;;;;;27.80;7.85;;;6.00;71.80;;;0.91;100.00;93778.38;4938965;28;20029;-54
2023/12/01 04:20:21;;;;;;;17.55;6.78;;;6.00;71.80;;;0.83;100.00;93768.31;4944652;28;20034;-52
2023/12/01 04:22:56;;;;;;;52.38;7.72;;;6.00;71.80;;;0.84;100.00;93772.50;4944148;28;20018;-56
2023/12/01 04:25:22;;;;;;;29.15;7.60;;;6.00;71.70;;;0.85;100.00;93771.50;4942586;28;20023;-58
2023/12/01 04:27:50;;;;;;;36.03;8.50;;;6.00;71.80;;;0.85;100.00;93757.59;4943997;28;20081;-56
2023/12/01 04:30:17;;;;;;;36.75;7.65;;;6.00;72.50;;;0.87;100.00;93758.13;4946984;28;20143;-52
2023/12/01 04:32:54;;;;;;;43.40;9.70;;;6.00;71.80;;;0.87;100.00;93758.91;4947105;28;20038;-52
2023/12/01 04:35:22;;;;;;;38.95;8.85;;;6.00;71.80;;;0.85;100.00;93765.47;4944670;28;20030;-57
2023/12/01 04:37:49;;;;;;;146.30;12.40;;;5.90;71.80;;;0.85;100.00;93760.22;4943016;28;20482;-53
2023/12/01 04:40:15;;;;;;;35.75;7.57;;;5.90;71.90;;;0.87;100.00;93766.78;4939695;28;20023;-56
2023/12/01 04:42:48;;;;;;;43.45;8.73;;;5.90;71.90;;;0.85;100.00;93778.56;4945022;28;20393;-52
2023/12/01 04:45:17;;;;;;;47.50;9.23;;;6.00;72.00;;;0.89;100.00;93777.03;4948509;28;20541;-60
2023/12/01 04:47:50;;;;;;;28.13;8.50;;;5.90;71.90;;;0.85;100.00;93796.91;4941862;28;20041;-55
2023/12/01 04:50:22;;;;;;;132.55;12.27;;;6.00;72.00;;;0.77;100.00;93800.75;4925341;29;20032;-55
2023/12/01 04:53:01;;;;;;;35.47;7.27;;;5.90;71.90;;;0.74;100.00;93788.16;4918156;29;20027;-52
2023/12/01 04:55:30;;;;;;;35.17;6.93;;;5.90;72.60;;;0.73;100.00;93796.28;4921634;29;20308;-57
2023/12/01 04:57:58;;;;;;;21.90;7.22;;;5.90;71.80;;;0.75;100.00;93794.97;4928878;29;20030;-58
2023/12/01 05:00:27;;;;;;;133.73;11.13;;;5.90;71.90;;;0.79;100.00;93797.91;4921054;29;20126;-56
2023/12/01 05:02:59;;;;;;;261.88;15.40;;;5.90;71.90;;;0.80;100.00;93797.66;4927807;29;20027;-51
2023/12/01 05:05:31;;;;;;;34.45;6.93;;;5.90;72.00;;;0.78;100.00;93802.34;4919616;29;20525;-53
2023/12/01 05:08:04;;;;;;;20.58;6.45;;;5.90;72.00;;;0.77;100.00;93794.72;4924519;29;20093;-52
2023/12/01 05:10:33;;;;;;;28.67;6.90;;;5.90;72.00;;;0.80;100.00;93796.84;4920893;29;20027;-51
2023/12/01 05:13:06;;;;;;;34.30;6.07;;;5.90;72.00;;;0.81;100.00;93790.56;4920549;29;20363;-51
2023/12/01 05:15:35;;;;;;;205.27;14.57;;;5.90;72.00;;;0.81;100.00;93783.50;4927274;29;20043;-55
2023/12/01 05:18:11;;;;;;;127.88;10.98;;;5.90;72.00;;;0.80;100.00;93779.28;4918768;29;20042;-50
2023/12/01 05:20:39;;;;;;;162.25;12.80;;;5.90;71.90;;;0.81;100.00;93777.47;4925496;29;20050;-51
2023/12/01 05:23:09;;;;;;;16.63;5.60;;;5.90;71.90;;;0.82;100.00;93768.59;4922876;29;20486;-51
2023/12/01 05:25:38;;;;;;;24.58;6.47;;;5.90;72.70;;;0.83;100.00;93778.00;4922474;29;20037;-50
2023/12/01 05:28:09;;;;;;;16.48;5.60;;;5.90;72.00;;;0.83;100.00;93775.41;4924819;29;20625;-49
2023/12/01 05:30:40;;;;;;;58.60;8.25;;;5.90;72.00;;;0.84;100.00;93779.59;4920051;28;20071;-50
2023/12/01 05:33:06;;;;;;;40.85;7.18;;;5.90;72.00;;;0.84;100.00;93779.59;4923050;28;20042;-52
2023/12/01 05:35:37;;;;;;;43.70;7.13;;;5.90;72.00;;;0.83;100.00;93789.28;4925905;29;20027;-52
2023/12/01 05:38:04;;;;;;;19.85;6.00;;;5.90;72.00;;;0.83;100.00;93778.81;4921198;29;20039;-51
2023/12/01 05:40:35;;;;;;;18.45;6.15;;;5.90;72.00;;;0.84;100.00;93774.34;4920762;28;20041;-53
2023/12/01 05:43:04;;;;;;;16.77;5.65;;;5.90;72.00;;;0.81;100.00;93778.25;4919983;29;20054;-50
2023/12/01 05:45:35;;;;;;;18.95;6.32;;;5.90;71.90;;;0.84;100.00;93782.22;4921346;29;20054;-54
2023/12/01 05:48:06;;;;;;;47.20;7.03;;;5.90;72.00;;;0.84;100.00;93769.88;4925065;28;20030;-51
2023/12/01 05:50:33;;;;;;;27.35;6.60;;;5.90;72.00;;;0.84;100.00;93775.13;4941815;28;20493;-53
2023/12/01 05:53:06;;;;;;;20.35;5.30;;;5.90;72.70;;;0.87;100.00;93798.22;4937830;28;20572;-52
2023/12/01 05:55:35;;;;;;;22.98;6.32;;;5.90;72.00;;;0.85;100.00;93791.69;4941627;28;20031;-49
2023/12/01 05:58:13;;;;;;;19.20;5.85;;;5.90;72.00;;;0.86;100.00;93793.25;4944992;28;20034;-52
2023/12/01 06:00:40;;;;;;;20.95;5.72;;;5.90;72.00;;;0.86;100.00;93793.25;4935430;28;20074;-51
2023/12/01 06:03:09;;;;;;;29.10;5.82;;;5.90;72.10;;;0.86;100.00;93793.25;4935208;28;20061;-49
2023/12/01 06:05:38;;;;;;;26.85;7.07;;;6.00;72.10;;;0.89;100.00;93796.16;4935384;28;20042;-56
2023/12/01 06:08:08;;;;;;;33.80;7.28;;;6.00;72.10;;;0.89;100.00;93801.41;4938603;28;20038;-55
2023/12/01 06:10:34;;;;;;;34.95;5.63;;;5.90;72.10;;;0.89;100.00;93806.66;4946856;28;20031;-54
2023/12/01 06:13:00;;;;;;;21.98;5.22;;;5.90;72.10;;;0.89;100.00;93806.66;4938121;28;20047;-53
2023/12/01 06:15:29;;;;;;;24.55;6.22;;;6.00;72.20;;;0.93;100.00;93804.31;4945354;28;20019;-51
2023/12/01 06:17:58;;;;;;;46.88;6.88;;;6.00;72.30;;;0.96;100.00;93810.91;4942536;28;20030;-56
2023/12/01 06:20:24;;;;;;;73.78;7.05;;;6.00;72.20;;;0.97;100.00;93807.25;4941705;28;20118;-55
2023/12/01 06:22:57;;;;;;;26.10;6.38;;;6.00;72.20;;;0.94;100.00;93805.94;4937351;28;20027;-53
2023/12/01 06:25:37;;;;;;;13.43;5.85;;;6.00;72.20;;;0.97;100.00;93802.78;4938327;28;20026;-52
2023/12/01 06:28:05;;;;;;;32.67;6.15;;;6.10;72.20;;;0.97;100.00;93802.78;4943734;28;20054;-53
2023/12/01 06:30:34;;;;;;;20.02;5.80;;;6.00;72.10;;;0.99;100.00;93795.47;4947785;28;20030;-51
2023/12/01 06:33:06;;;;;;;61.58;7.90;;;6.10;72.20;;;1.01;100.00;93792.63;4941391;28;20039;-51
2023/12/01 06:35:33;;;;;;;130.43;9.68;;;6.10;72.20;;;1.02;100.00;93796.81;4944530;28;20023;-52
2023/12/01 06:37:59;;;;;;;30.50;6.15;;;6.00;72.10;;;1.01;100.00;93808.34;4939163;28;20039;-52
2023/12/01 06:40:25;;;;;;;26.42;7.57;;;6.00;72.10;;;1.02;100.00;93817.78;4939553;28;20030;-53
2023/12/01 06:42:56;;;;;;;22.02;6.45;;;6.10;72.20;;;1.06;100.00;93817.03;4942546;28;20108;-51
2023/12/01 06:45:28;;;;;;;17.13;5.93;;;6.10;72.30;;;1.09;100.00;93824.41;4941401;28;20113;-53
2023/12/01 06:47:58;;;;;;;20.85;6.20;;;6.10;72.30;;;1.10;100.00;93826.00;4938599;28;20037;-53
2023/12/01 06:50:24;;;;;;;17.25;5.72;;;6.20;72.30;;;1.11;100.00;93832.81;4941629;28;20027;-54
2023/12/01 06:52:53;;;;;;;48.75;6.75;;;6.20;72.30;;;1.12;100.00;93833.59;4938201;28;20508;-51
2023/12/01 06:55:20;;;;;;;48.30;5.95;;;6.20;72.30;;;1.11;100.00;93830.19;4934564;28;20386;-53
2023/12/01 06:57:49;;;;;;;25.17;5.72;;;6.30;72.20;;;1.14;100.00;93828.91;4945026;28;20047;-56
2023/12/01 07:00:29;;;;;;;62.08;6.75;;;6.30;72.20;;;1.14;100.00;93826.28;4936563;28;20193;-52
2023/12/01 07:02:57;;;;;;;78.53;8.43;;;6.30;72.10;;;1.16;100.00;93832.09;4934578;28;20027;-53
2023/12/01 07:05:29;;;;;;;17.80;6.13;;;6.30;72.10;;;1.20;100.00;93843.66;4931779;28;20073;-57
2023/12/01 07:07:57;;;;;;;15.75;5.82;;;6.30;72.20;;;1.23;100.00;93843.16;4932555;28;20077;-54
2023/12/01 07:10:24;;;;;;;18.88;6.93;;;6.30;72.20;;;1.26;100.00;93847.13;4936404;28;20470;-54
2023/12/01 07:12:54;;;;;;;16.40;6.00;;;6.30;72.20;;;1.30;100.00;93848.22;4935676;28;20062;-57
2023/12/01 07:15:23;;;;;;;18.30;6.97;;;6.40;72.30;;;1.34;100.00;93836.16;4941727;28;20061;-57
2023/12/01 07:17:58;;;;;;;25.90;6.45;;;6.40;72.30;;;1.37;100.00;93849.56;4936314;28;20035;-58
2023/12/01 07:20:25;;;;;;;48.67;8.38;;;6.40;72.30;;;1.38;100.00;93856.44;4954190;28;20498;-54
2023/12/01 07:22:53;;;;;;;17.90;6.43;;;6.50;72.40;;;1.44;100.00;93865.09;4938559;28;20030;-56
2023/12/01 07:25:21;;;;;;;42.00;9.35;;;6.50;72.40;;;1.48;100.00;93860.97;4938712;28;20050;-55
2023/12/01 07:28:04;;;;;;;24.95;8.80;;;6.50;72.30;;;1.52;100.00;93856.78;4940482;28;20030;-53
2023/12/01 07:30:30;;;;;;;19.63;7.07;;;6.60;72.30;;;1.54;100.00;93853.94;4936843;28;20098;-52
2023/12/01 07:33:00;;;;;;;26.85;7.18;;;6.60;72.30;;;1.56;100.00;93855.25;4937213;28;20446;-50
2023/12/01 07:35:26;;;;;;;81.80;7.07;;;6.70;72.30;;;1.56;100.00;93860.50;4940264;28;20030;-54
2023/12/01 07:37:53;;;;;;;636.97;29.70;;;6.70;72.20;;;1.55;100.00;93864.16;4937570;28;20033;-55
2023/12/01 07:40:20;;;;;;;108.50;8.30;;;6.80;72.10;;;1.56;100.00;93865.75;4936748;29;20026;-51
2023/12/01 07:42:53;;;;;;;90.75;8.20;;;6.80;72.00;;;1.57;100.00;93864.72;4941263;28;20035;-54
2023/12/01 07:45:19;;;;;;;22.08;6.88;;;6.80;71.90;;;1.57;100.00;93861.31;4941180;28;20090;-52
2023/12/01 07:47:48;;;;;;;109.70;10.00;;;6.80;71.80;;;1.59;100.00;93875.75;4933661;28;20495;-55
2023/12/01 07:50:19;;;;;;;295.95;15.27;;;6.80;71.80;;;1.61;100.00;93880.75;4936241;29;20027;-49
2023/12/01 07:52:49;;;;;;;319.15;17.65;;;6.80;71.80;;;1.62;100.00;93877.06;4934828;29;20030;-49
2023/12/01 07:55:17;;;;;;;403.17;18.05;;;6.80;71.80;;;1.60;100.00;93881.81;4938011;28;20023;-53
2023/12/01 07:57:43;;;;;;;64.82;7.60;;;6.90;72.50;;;1.59;100.00;93883.63;4946146;28;20647;-55
2023/12/01 08:00:15;;;;;;;83.05;9.32;;;6.90;71.60;;;1.60;100.00;93876.56;4935278;28;20038;-50
2023/12/01 08:02:47;;;;;;;485.80;20.40;;;6.90;71.60;;;1.56;100.00;93871.00;4955946;28;20061;-50
2023/12/01 08:05:13;;;;;;;266.42;16.23;;;6.90;71.60;;;1.60;100.00;93871.31;4929378;29;20521;-50
2023/12/01 08:07:51;;;;;;;200.00;14.20;;;6.90;71.60;;;1.62;100.00;93869.22;4937138;29;20023;-52
2023/12/01 08:10:19;;;;;;;415.63;19.95;;;6.90;71.50;;;1.63;100.00;93860.31;4938914;29;20106;-52
2023/12/01 08:12:49;;;;;;;438.77;23.92;;;7.00;71.60;;;1.63;100.00;93860.31;4952224;28;20041;-54
2023/12/01 08:15:16;;;;;;;131.77;13.73;;;7.00;71.50;;;1.69;100.00;93876.88;4942033;29;20019;-55
2023/12/01 08:17:44;;;;;;;161.32;13.98;;;7.00;71.50;;;1.68;100.00;93849.84;4935152;28;20050;-52
2023/12/01 08:20:11;;;;;;;482.08;25.52;;;7.00;71.50;;;1.71;100.00;93856.41;4939977;28;20023;-52
2023/12/01 08:22:38;;;;;;;215.90;13.68;;;7.00;71.40;;;1.73;100.00;93856.97;4937554;28;20583;-53
2023/12/01 08:25:09;;;;;;;203.25;12.82;;;7.00;71.40;;;1.71;100.00;93853.78;4937945;28;20019;-57
2023/12/01 08:27:37;;;;;;;399.05;19.85;;;7.00;71.30;;;1.72;100.00;93865.88;4941932;28;20441;-54
2023/12/01 08:30:04;;;;;;;572.35;25.63;;;7.10;71.30;;;1.75;100.00;93865.38;4935357;28;20035;-53
2023/12/01 08:32:30;;;;;;;221.35;13.68;;;7.10;71.30;;;1.79;100.00;93876.97;4940059;29;20549;-56
2023/12/01 08:34:55;;;;;;;261.70;14.23;;;7.10;71.20;;;1.80;100.00;93874.06;4941741;28;20034;-56
2023/12/01 08:37:21;;;;;;;230.80;13.00;;;7.20;71.30;;;1.83;100.00;93875.41;4942179;29;20027;-51
2023/12/01 08:39:47;;;;;;;195.18;12.15;;;7.20;71.20;;;1.84;100.00;93872.53;4943510;28;20085;-54
2023/12/01 08:42:13;;;;;;;70.90;8.57;;;7.20;71.20;;;1.84;100.00;93877.00;4938249;28;20019;-49
2023/12/01 08:44:39;;;;;;;65.45;9.10;;;7.30;71.30;;;1.81;100.00;93874.88;4936630;28;20109;-50
2023/12/01 08:47:05;;;;;;;112.43;10.43;;;7.30;71.20;;;1.81;100.00;93880.13;4935746;28;20114;-53
2023/12/01 08:49:31;;;;;;;119.97;10.23;;;7.30;71.10;;;1.83;100.00;93888.53;4943943;28;20046;-50
2023/12/01 08:51:57;;;;;;;234.90;14.68;;;7.30;71.10;;;1.84;100.00;93882.25;4934094;28;20019;-53
2023/12/01 08:54:23;;;;;;;123.68;11.20;;;7.30;71.10;;;1.88;100.00;93888.59;4941146;29;20031;-53
2023/12/01 08:56:49;;;;;;;66.72;9.38;;;7.30;71.10;;;1.90;100.00;93890.97;4945839;28;20501;-50
2023/12/01 08:59:17;;;;;;;275.80;17.45;;;7.30;71.10;;;1.91;100.00;93887.28;4940374;28;20429;-51
2023/12/01 09:01:44;;;;;;;167.07;12.63;;;7.30;71.10;;;1.92;100.00;93873.13;4946152;28;20050;-50
2023/12/01 09:04:10;;;;;;;134.73;9.95;;;7.40;71.20;;;1.95;100.00;93873.41;4939603;28;20038;-51
2023/12/01 09:06:38;;;;;;;341.55;16.00;;;7.40;71.00;;;1.96;100.00;93876.81;4944077;28;20409;-55
2023/12/01 09:09:05;;;;;;;177.05;10.52;;;7.30;71.00;;;1.95;100.00;93876.03;4944471;28;20062;-53
2023/12/01 09:11:31;;;;;;;122.25;9.30;;;7.40;71.00;;;1.96;100.00;93876.81;4944357;28;20026;-51
2023/12/01 09:13:58;;;;;;;296.85;13.52;;;7.40;71.00;;;1.97;100.00;93876.56;4942502;28;20030;-50
2023/12/01 09:16:24;;;;;;;146.15;9.38;;;7.40;71.00;;;1.98;100.00;93883.41;4941943;28;20023;-53
2023/12/01 09:18:51;;;;;;;277.50;12.75;;;7.40;71.00;;;1.99;100.00;93889.44;4941077;28;20088;-51
2023/12/01 09:21:18;;;;;;;226.55;12.90;;;7.50;71.00;;;1.98;100.00;93891.28;4938973;28;20081;-53
2023/12/01 09:23:44;;;;;;;133.20;10.40;;;7.50;70.90;;;2.03;100.00;93880.00;4946273;28;20030;-53
2023/12/01 09:26:17;;;;;;;146.07;9.38;;;7.50;70.80;;;2.07;100.00;93889.00;4937272;28;20042;-57
2023/12/01 09:28:43;;;;;;;131.57;8.88;;;7.60;70.80;;;2.04;100.00;93884.25;4938387;28;20023;-52
2023/12/01 09:31:10;;;;;;;87.75;8.45;;;7.60;70.70;;;2.04;100.00;93874.53;4947699;28;20078;-55
2023/12/01 09:33:37;;;;;;;166.82;11.18;;;7.60;70.60;;;2.13;100.00;93885.34;4943312;28;20034;-53
2023/12/01 09:36:04;;;;;;;130.52;9.32;;;7.60;70.60;;;2.15;100.00;93882.47;4946913;28;20026;-56
2023/12/01 09:38:31;;;;;;;114.22;9.55;;;7.60;70.50;;;2.20;100.00;93883.28;4940155;28;20381;-57
2023/12/01 09:40:57;;;;;;;238.40;14.25;;;7.70;70.50;;;2.25;100.00;93872.78;4941401;28;20427;-57
2023/12/01 09:43:24;;;;;;;144.13;10.70;;;7.70;71.30;;;2.21;100.00;93874.34;4946157;28;20481;-59
2023/12/01 09:45:53;;;;;;;329.42;17.83;;;7.80;70.60;;;2.20;100.00;93864.91;4944096;28;20099;-61
2023/12/01 09:48:20;;;;;;;38.17;6.40;;;7.80;70.50;;;2.17;100.00;93870.66;4943522;28;20046;-59
2023/12/01 09:50:47;;;;;;;198.18;12.38;;;7.80;70.50;;;2.24;100.00;93857.31;4941576;28;20023;-61
2023/12/01 09:53:16;;;;;;;43.55;6.45;;;7.80;70.50;;;2.27;100.00;93856.78;4939713;28;20065;-61
2023/12/01 09:55:43;;;;;;;79.20;9.15;;;7.80;70.40;;;2.27;100.00;93859.41;4938506;28;20085;-60
2023/12/01 09:58:10;;;;;;;291.75;16.45;;;7.80;70.30;;;2.29;100.00;93857.34;4945046;28;20110;-61
2023/12/01 10:00:36;;;;;;;48.08;6.22;;;7.80;70.30;;;2.32;100.00;93848.94;4940603;28;20046;-61
2023/12/01 10:03:03;;;;;;;14.88;5.57;;;7.80;70.30;;;2.34;100.00;93853.94;4944730;28;20071;-61
2023/12/01 10:05:34;;;;;;;82.63;7.82;;;7.80;70.20;;;2.35;100.00;93856.31;4937620;28;20114;-61
2023/12/01 10:08:00;;;;;;;41.95;6.60;;;7.90;70.40;;;2.37;100.00;93871.81;4940114;28;20045;-61
2023/12/01 10:10:28;;;;;;;368.55;18.67;;;7.90;70.40;;;2.38;100.00;93863.66;4945726;28;20023;-60
2023/12/01 10:13:04;;;;;;;242.15;14.98;;;8.00;70.40;;;2.38;100.00;93849.75;4938494;28;20098;-61
2023/12/01 10:15:33;;;;;;;64.45;7.45;;;8.00;70.30;;;2.40;100.00;93848.44;4944736;28;20031;-60
2023/12/01 10:18:19;;;;;;;227.98;13.00;;;8.00;70.20;;;2.44;100.00;93841.63;4934906;28;20393;-60